createdAt,value
2019-05-11T00:00:39.045Z,101313.02
2019-05-11T00:03:11.460Z,101304.16
2019-05-11T00:05:45.540Z,101304.54
2019-05-11T00:08:22.481Z,101302.95
2019-05-11T00:10:55.438Z,101307.05
2019-05-11T00:13:29.143Z,101305.81
2019-05-11T00:16:00.583Z,101297.41
2019-05-11T00:18:37.289Z,101291.73
2019-05-11T00:21:07.581Z,101285.39
2019-05-11T00:23:38.011Z,101293.20
2019-05-11T00:26:17.390Z,101289.98
2019-05-11T00:28:47.938Z,101293.31
2019-05-11T00:31:20.305Z,101291.20
2019-05-11T00:33:52.151Z,101292.56
2019-05-11T00:36:28.921Z,101292.16
2019-05-11T00:39:03.722Z,101285.63
2019-05-11T00:41:38.896Z,101282.60
2019-05-11T00:44:09.982Z,101287.27
2019-05-11T00:46:40.362Z,101286.84
2019-05-11T00:49:11.647Z,101278.82
2019-05-11T00:51:56.990Z,101280.37
2019-05-11T00:54:35.015Z,101279.60
2019-05-11T00:57:12.966Z,101287.59
2019-05-11T00:59:49.413Z,101284.73
2019-05-11T01:02:22.687Z,101288.06
2019-05-11T01:04:57.013Z,101289.27
2019-05-11T01:07:28.764Z,101292.88
2019-05-11T01:10:05.054Z,101292.34
2019-05-11T01:12:38.713Z,101291.79
2019-05-11T01:15:10.758Z,101295.80
2019-05-11T01:17:56.476Z,101288.41
2019-05-11T01:20:26.746Z,101292.34
2019-05-11T01:23:00.211Z,101289.11
2019-05-11T01:25:35.928Z,101290.09
2019-05-11T01:28:06.065Z,101287.50
2019-05-11T01:30:38.945Z,101286.89
2019-05-11T01:33:11.044Z,101292.02
2019-05-11T01:35:53.471Z,101290.56
2019-05-11T01:38:26.574Z,101292.74
2019-05-11T01:40:59.278Z,101293.52
2019-05-11T01:43:30.879Z,101296.11
2019-05-11T01:46:06.184Z,101296.44
2019-05-11T01:48:40.463Z,101294.58
2019-05-11T01:51:13.613Z,101295.58
2019-05-11T01:53:49.054Z,101295.48
2019-05-11T01:56:22.710Z,101304.31
2019-05-11T01:59:12.479Z,101300.12
2019-05-11T02:01:51.744Z,101303.36
2019-05-11T02:04:22.416Z,101308.45
2019-05-11T02:06:59.715Z,101306.56
2019-05-11T02:09:38.787Z,101308.07
2019-05-11T02:12:09.105Z,101302.61
2019-05-11T02:14:41.660Z,101309.05
2019-05-11T02:17:18.966Z,101318.64
2019-05-11T02:19:49.752Z,101312.79
2019-05-11T02:22:23.232Z,101307.33
2019-05-11T02:24:57.217Z,101316.62
2019-05-11T02:27:33.108Z,101313.14
2019-05-11T02:30:06.478Z,101315.02
2019-05-11T02:32:46.006Z,101320.17
2019-05-11T02:35:16.655Z,101315.02
2019-05-11T02:37:52.069Z,101318.10
2019-05-11T02:40:25.653Z,101319.70
2019-05-11T02:43:00.225Z,101322.84
2019-05-11T02:45:48.082Z,101318.25
2019-05-11T02:48:26.841Z,101330.36
2019-05-11T02:51:01.376Z,101328.09
2019-05-11T02:53:38.890Z,101328.09
2019-05-11T02:56:11.266Z,101333.83
2019-05-11T02:58:42.007Z,101329.36
2019-05-11T03:01:14.201Z,101320.97
2019-05-11T03:03:48.652Z,101328.50
2019-05-11T03:06:21.090Z,101331.09
2019-05-11T03:08:54.403Z,101335.16
2019-05-11T03:11:25.288Z,101338.05
2019-05-11T03:14:01.037Z,101342.27
2019-05-11T03:16:32.418Z,101338.66
2019-05-11T03:19:05.515Z,101337.55
2019-05-11T03:21:37.238Z,101345.72
2019-05-11T03:24:09.789Z,101353.17
2019-05-11T03:26:45.924Z,101346.05
2019-05-11T03:29:18.206Z,101350.71
2019-05-11T03:31:55.382Z,101356.72
2019-05-11T03:34:32.126Z,101347.37
2019-05-11T03:37:03.966Z,101356.06
2019-05-11T03:39:42.977Z,101357.98
2019-05-11T03:42:17.464Z,101350.50
2019-05-11T03:44:56.000Z,101358.56
2019-05-11T03:47:29.883Z,101354.86
2019-05-11T03:50:01.041Z,101353.57
2019-05-11T03:52:33.904Z,101361.53
2019-05-11T03:55:17.096Z,101358.80
2019-05-11T03:57:49.877Z,101362.37
2019-05-11T04:00:33.811Z,101363.01
2019-05-11T04:03:07.408Z,101367.19
2019-05-11T04:05:39.083Z,101372.17
2019-05-11T04:08:12.948Z,101376.75
2019-05-11T04:10:48.622Z,101373.89
2019-05-11T04:13:23.603Z,101385.95
2019-05-11T04:15:59.344Z,101380.03
2019-05-11T04:18:35.224Z,101382.58
2019-05-11T04:21:07.966Z,101382.84
2019-05-11T04:23:38.285Z,101388.75
2019-05-11T04:26:16.256Z,101395.11
2019-05-11T04:28:53.947Z,101393.86
2019-05-11T04:31:27.070Z,101395.30
2019-05-11T04:33:58.680Z,101401.98
2019-05-11T04:36:39.368Z,101400.20
2019-05-11T04:39:20.099Z,101395.70
2019-05-11T04:41:52.336Z,101403.91
2019-05-11T04:44:33.949Z,101394.02
2019-05-11T04:47:05.844Z,101401.00
2019-05-11T04:49:39.410Z,101407.77
2019-05-11T04:52:09.754Z,101405.92
2019-05-11T04:54:44.385Z,101410.69
2019-05-11T04:57:17.498Z,101413.77
2019-05-11T04:59:49.400Z,101405.63
2019-05-11T05:02:27.255Z,101419.95
2019-05-11T05:04:59.132Z,101418.94
2019-05-11T05:07:31.934Z,101420.87
2019-05-11T05:10:14.126Z,101427.86
2019-05-11T05:12:50.412Z,101425.70
2019-05-11T05:15:18.070Z,101428.21
2019-05-11T05:18:15.755Z,101432.09
2019-05-11T05:20:49.749Z,101430.25
2019-05-11T05:23:25.558Z,101432.82
2019-05-11T05:29:43.348Z,101428.22
2019-05-11T05:32:23.116Z,101441.51
2019-05-11T05:36:09.915Z,101436.27
2019-05-11T05:39:10.618Z,101446.94
2019-05-11T05:46:23.291Z,101457.22
2019-05-11T05:50:15.208Z,101456.23
2019-05-11T05:53:10.595Z,101457.50
2019-05-11T05:55:52.955Z,101456.34
2019-05-11T05:58:42.086Z,101461.54
2019-05-11T06:01:12.935Z,101460.06
2019-05-11T06:03:44.882Z,101465.19
2019-05-11T06:06:15.277Z,101468.29
2019-05-11T06:08:45.515Z,101471.18
2019-05-11T06:11:15.761Z,101481.05
2019-05-11T06:13:47.085Z,101480.30
2019-05-11T06:16:17.342Z,101475.86
2019-05-11T06:18:47.555Z,101482.18
2019-05-11T06:21:17.724Z,101484.09
2019-05-11T06:23:48.089Z,101493.02
2019-05-11T06:26:18.359Z,101483.47
2019-05-11T06:28:48.610Z,101489.95
2019-05-11T06:31:22.924Z,101490.73
2019-05-11T06:33:55.052Z,101492.56
2019-05-11T06:36:24.953Z,101489.83
2019-05-11T06:38:55.201Z,101495.56
2019-05-11T06:41:25.437Z,101494.57
2019-05-11T06:44:01.679Z,101500.30
2019-05-11T06:46:29.346Z,101501.52
2019-05-11T06:49:02.755Z,101506.58
2019-05-11T06:51:34.526Z,101499.59
2019-05-11T06:54:04.689Z,101508.88
2019-05-11T06:56:34.784Z,101517.35
2019-05-11T06:59:05.051Z,101519.64
2019-05-11T07:01:35.248Z,101516.49
2019-05-11T07:04:05.965Z,101523.95
2019-05-11T07:06:36.153Z,101528.09
2019-05-11T07:09:07.682Z,101536.37
2019-05-11T07:11:37.936Z,101534.50
2019-05-11T07:14:20.015Z,101532.26
2019-05-11T07:16:40.358Z,101547.21
2019-05-11T07:19:10.610Z,101546.26
2019-05-11T07:21:40.805Z,101554.42
2019-05-11T07:24:10.919Z,101561.20
2019-05-11T07:26:41.179Z,101562.00
2019-05-11T07:29:12.383Z,101562.31
2019-05-11T07:31:42.538Z,101566.52
2019-05-11T07:34:12.630Z,101571.22
2019-05-11T07:36:42.985Z,101569.59
2019-05-11T07:39:13.219Z,101572.02
2019-05-11T07:41:43.629Z,101578.57
2019-05-11T07:44:34.674Z,101587.16
2019-05-11T07:46:51.077Z,101589.22
2019-05-11T07:49:23.462Z,101595.89
2019-05-11T07:51:53.184Z,101599.09
2019-05-11T07:54:23.395Z,101607.55
2019-05-11T07:56:58.391Z,101611.94
2019-05-11T07:59:29.085Z,101605.48
2019-05-11T08:01:59.467Z,101619.02
2019-05-11T08:04:29.641Z,101621.46
2019-05-11T08:07:00.020Z,101627.66
2019-05-11T08:09:30.208Z,101641.88
2019-05-11T08:12:01.993Z,101631.44
2019-05-11T08:14:32.252Z,101641.77
2019-05-11T08:17:08.635Z,101628.08
2019-05-11T08:19:38.809Z,101634.95
2019-05-11T08:22:09.131Z,101638.61
2019-05-11T08:24:39.500Z,101639.63
2019-05-11T08:27:09.902Z,101643.37
2019-05-11T08:29:40.057Z,101642.97
2019-05-11T08:32:10.292Z,101638.20
2019-05-11T08:34:45.098Z,101630.83
2019-05-11T08:37:15.377Z,101638.65
2019-05-11T08:39:48.030Z,101651.50
2019-05-11T08:42:18.049Z,101656.81
2019-05-11T08:44:48.459Z,101653.99
2019-05-11T08:50:42.656Z,101650.59
2019-05-11T08:53:15.221Z,101648.99
2019-05-11T08:55:48.699Z,101651.12
2019-05-11T08:58:20.572Z,101656.59
2019-05-11T09:00:52.431Z,101664.81
2019-05-11T09:03:22.696Z,101671.66
2019-05-11T09:05:52.864Z,101668.88
2019-05-11T09:08:23.141Z,101680.58
2019-05-11T09:10:53.313Z,101686.45
2019-05-11T09:13:23.556Z,101677.90
2019-05-11T09:15:58.665Z,101688.27
2019-05-11T09:18:28.365Z,101687.72
2019-05-11T09:20:58.654Z,101689.91
2019-05-11T09:23:36.573Z,101694.31
2019-05-11T09:26:01.987Z,101696.17
2019-05-11T09:28:32.232Z,101696.45
2019-05-11T09:31:02.424Z,101700.42
2019-05-11T09:33:33.012Z,101702.64
2019-05-11T09:36:03.454Z,101712.19
2019-05-11T09:38:39.411Z,101711.70
2019-05-11T09:41:12.257Z,101710.39
2019-05-11T09:43:44.332Z,101717.25
2019-05-11T09:46:14.659Z,101721.28
2019-05-11T09:48:44.879Z,101723.17
2019-05-11T09:51:15.025Z,101732.83
2019-05-11T09:53:45.386Z,101744.19
2019-05-11T09:56:18.379Z,101741.11
2019-05-11T09:58:48.524Z,101750.49
2019-05-11T10:01:18.750Z,101749.88
2019-05-11T10:03:48.951Z,101751.18
2019-05-11T10:06:19.292Z,101765.13
2019-05-11T10:08:49.414Z,101764.38
2019-05-11T10:11:19.575Z,101757.69
2019-05-11T10:13:49.876Z,101762.91
2019-05-11T10:16:20.016Z,101768.09
2019-05-11T10:18:50.248Z,101769.02
2019-05-11T10:21:20.463Z,101779.77
2019-05-11T10:23:50.693Z,101777.94
2019-05-11T10:26:20.867Z,101781.12
2019-05-11T10:28:51.130Z,101780.33
2019-05-11T10:31:21.355Z,101774.08
2019-05-11T10:33:51.488Z,101792.80
2019-05-11T10:36:21.670Z,101787.51
2019-05-11T10:38:51.814Z,101792.48
2019-05-11T10:41:22.810Z,101792.67
2019-05-11T10:43:53.006Z,101798.33
2019-05-11T10:46:23.760Z,101797.34
2019-05-11T10:48:54.250Z,101798.05
2019-05-11T10:51:24.534Z,101812.37
2019-05-11T10:53:57.742Z,101810.73
2019-05-11T10:56:28.640Z,101824.42
2019-05-11T10:58:58.851Z,101827.00
2019-05-11T11:01:29.056Z,101825.83
2019-05-11T11:03:59.272Z,101828.80
2019-05-11T11:06:31.116Z,101827.77
2019-05-11T11:09:01.287Z,101836.23
2019-05-11T11:11:35.235Z,101828.97
2019-05-11T11:14:05.485Z,101828.09
2019-05-11T11:16:40.400Z,101830.63
2019-05-11T11:19:07.741Z,101830.18
2019-05-11T11:21:38.408Z,101838.92
2019-05-11T11:24:08.761Z,101830.83
2019-05-11T11:26:39.849Z,101826.55
2019-05-11T11:29:10.148Z,101830.55
2019-05-11T11:31:40.304Z,101838.77
2019-05-11T11:34:10.502Z,101837.28
2019-05-11T11:36:40.737Z,101835.20
2019-05-11T11:39:10.942Z,101846.25
2019-05-11T11:41:41.257Z,101851.47
2019-05-11T11:44:15.466Z,101851.53
2019-05-11T11:46:52.054Z,101849.67
2019-05-11T11:49:18.784Z,101864.81
2019-05-11T11:51:52.125Z,101855.64
2019-05-11T11:54:23.635Z,101870.85
2019-05-11T11:56:53.761Z,101881.63
2019-05-11T11:59:24.659Z,101879.02
2019-05-11T12:01:54.799Z,101878.76
2019-05-11T12:04:25.074Z,101882.19
2019-05-11T12:06:55.259Z,101878.76
2019-05-11T12:09:25.752Z,101889.28
2019-05-11T12:11:58.105Z,101892.00
2019-05-11T12:14:28.488Z,101888.23
2019-05-11T12:17:07.093Z,101896.86
2019-05-11T12:19:30.682Z,101902.97
2019-05-11T12:22:00.900Z,101909.66
2019-05-11T12:24:31.080Z,101912.13
2019-05-11T12:27:01.252Z,101921.25
2019-05-11T12:29:31.429Z,101920.15
2019-05-11T12:32:03.626Z,101920.89
2019-05-11T12:34:34.816Z,101919.80
2019-05-11T12:37:08.405Z,101932.00
2019-05-11T12:39:38.629Z,101938.48
2019-05-11T12:42:08.962Z,101936.91
2019-05-11T12:44:39.147Z,101943.56
2019-05-11T12:47:21.141Z,101947.02
2019-05-11T12:49:42.243Z,101952.55
2019-05-11T12:52:13.021Z,101951.06
2019-05-11T12:54:43.124Z,101956.64
2019-05-11T12:57:13.426Z,101967.05
2019-05-11T12:59:43.566Z,101966.41
2019-05-11T13:02:13.810Z,101969.99
2019-05-11T13:04:44.011Z,101976.84
2019-05-11T13:07:16.551Z,101979.13
2019-05-11T13:09:49.274Z,101978.87
2019-05-11T13:12:19.436Z,101996.44
2019-05-11T13:14:49.601Z,101988.74
2019-05-11T13:17:33.076Z,101990.08
2019-05-11T13:19:51.828Z,101999.61
2019-05-11T13:22:21.973Z,102002.74
2019-05-11T13:24:52.170Z,102004.95
2019-05-11T13:27:24.771Z,102011.68
2019-05-11T13:29:54.949Z,102011.95
2019-05-11T13:32:25.133Z,102021.59
2019-05-11T13:34:55.311Z,102016.89
2019-05-11T13:37:28.142Z,102021.14
2019-05-11T13:39:57.997Z,102028.48
2019-05-11T13:42:28.308Z,102040.52
2019-05-11T13:44:58.552Z,102038.00
2019-05-11T13:47:28.675Z,102053.30
2019-05-11T13:49:58.947Z,102040.69
2019-05-11T13:52:29.141Z,102047.56
2019-05-11T13:54:59.279Z,102055.32
2019-05-11T13:57:29.825Z,102064.98
2019-05-11T14:00:00.032Z,102064.89
2019-05-11T14:02:30.222Z,102071.62
2019-05-11T14:05:00.353Z,102082.38
2019-05-11T14:07:32.624Z,102089.98
2019-05-11T14:10:04.059Z,102100.06
2019-05-11T14:12:38.531Z,102103.33
2019-05-11T14:15:09.406Z,102110.67
2019-05-11T14:17:39.666Z,102107.90
2019-05-11T14:20:10.577Z,102109.71
2019-05-11T14:22:40.788Z,102118.46
2019-05-11T14:25:11.419Z,102129.11
2019-05-11T14:27:41.634Z,102134.75
2019-05-11T14:30:12.345Z,102133.65
2019-05-11T14:32:42.690Z,102140.59
2019-05-11T14:35:13.147Z,102142.63
2019-05-11T14:37:43.317Z,102146.73
2019-05-11T14:40:13.730Z,102142.28
2019-05-11T14:42:44.011Z,102149.06
2019-05-11T14:45:15.761Z,102152.63
2019-05-11T14:47:47.784Z,102155.81
2019-05-11T14:50:19.646Z,102171.76
2019-05-11T14:52:49.966Z,102166.17
2019-05-11T14:55:20.218Z,102174.93
2019-05-11T14:57:50.382Z,102187.83
2019-05-11T15:00:21.056Z,102194.94
2019-05-11T15:02:51.256Z,102203.43
2019-05-11T15:05:44.612Z,102200.73
2019-05-11T15:08:20.854Z,102226.45
2019-05-11T15:10:51.106Z,102226.59
2019-05-11T15:13:22.168Z,102229.50
2019-05-11T15:15:52.330Z,102230.03
2019-05-11T15:18:35.261Z,102234.72
2019-05-11T15:20:54.544Z,102243.08
2019-05-11T15:23:24.738Z,102245.55
2019-05-11T15:25:54.936Z,102242.20
2019-05-11T15:28:25.164Z,102249.53
2019-05-11T15:30:58.727Z,102249.75
2019-05-11T15:33:29.027Z,102255.17
2019-05-11T15:36:00.153Z,102256.30
2019-05-11T15:38:30.629Z,102263.56
2019-05-11T15:41:00.864Z,102273.36
2019-05-11T15:43:31.063Z,102273.92
2019-05-11T15:46:01.163Z,102277.45
2019-05-11T15:48:31.351Z,102287.52
2019-05-11T15:51:01.500Z,102295.43
2019-05-11T15:53:31.621Z,102284.41
2019-05-11T15:56:02.189Z,102299.26
2019-05-11T15:58:32.431Z,102299.85
2019-05-11T16:01:02.744Z,102304.87
2019-05-11T16:03:33.023Z,102303.12
2019-05-11T16:06:03.175Z,102302.64
2019-05-11T16:08:37.640Z,102318.80
2019-05-11T16:11:08.369Z,102318.95
2019-05-11T16:13:38.706Z,102325.45
2019-05-11T16:16:08.998Z,102327.02
2019-05-11T16:19:19.386Z,102334.84
2019-05-11T16:22:22.978Z,102340.16
2019-05-11T16:24:58.062Z,102339.16
2019-05-11T16:27:28.539Z,102339.28
2019-05-11T16:29:58.745Z,102345.88
2019-05-11T16:32:28.989Z,102348.03
2019-05-11T16:35:00.773Z,102359.72
2019-05-11T16:37:33.398Z,102364.02
2019-05-11T16:40:03.904Z,102367.58
2019-05-11T16:42:34.020Z,102373.28
2019-05-11T16:45:04.629Z,102374.38
2019-05-11T16:47:35.980Z,102379.98
2019-05-11T16:50:08.514Z,102378.11
2019-05-11T16:52:38.815Z,102381.27
2019-05-11T16:55:12.874Z,102388.19
2019-05-11T16:57:43.201Z,102402.96
2019-05-11T17:00:15.605Z,102402.27
2019-05-11T17:02:45.801Z,102405.26
2019-05-11T17:05:25.800Z,102414.76
2019-05-11T17:07:48.480Z,102413.64
2019-05-11T17:10:20.432Z,102417.11
2019-05-11T17:12:50.738Z,102415.91
2019-05-11T17:15:20.985Z,102428.16
2019-05-11T17:17:51.290Z,102434.31
2019-05-11T17:20:22.171Z,102438.25
2019-05-11T17:22:53.896Z,102428.59
2019-05-11T17:25:24.349Z,102443.54
2019-05-11T17:27:58.624Z,102437.44
2019-05-11T17:30:28.285Z,102440.34
2019-05-11T17:32:59.324Z,102446.13
2019-05-11T17:35:29.655Z,102446.63
2019-05-11T17:38:01.188Z,102449.36
2019-05-11T17:40:31.393Z,102459.34
2019-05-11T17:43:03.171Z,102468.20
2019-05-11T17:45:33.366Z,102463.16
2019-05-11T17:48:05.180Z,102471.33
2019-05-11T17:50:35.410Z,102479.84
2019-05-11T17:53:05.619Z,102479.38
2019-05-11T17:55:38.078Z,102493.71
2019-05-11T17:58:08.732Z,102488.46
2019-05-11T18:00:39.407Z,102487.71
2019-05-11T18:03:11.165Z,102493.80
2019-05-11T18:05:41.920Z,102496.91
2019-05-11T18:08:13.036Z,102503.60
2019-05-11T18:10:44.417Z,102505.38
2019-05-11T18:13:14.631Z,102512.53
2019-05-11T18:15:49.341Z,102508.73
2019-05-11T18:18:19.597Z,102519.34
2019-05-11T18:20:52.306Z,102518.20
2019-05-11T18:23:22.488Z,102522.02
2019-05-11T18:25:52.754Z,102522.98
2019-05-11T18:28:22.992Z,102525.92
2019-05-11T18:30:53.161Z,102530.14
2019-05-11T18:33:23.505Z,102530.27
2019-05-11T18:35:53.548Z,102541.57
2019-05-11T18:38:23.749Z,102548.41
2019-05-11T18:40:53.934Z,102548.89
2019-05-11T18:43:24.108Z,102558.57
2019-05-11T18:45:54.312Z,102549.36
2019-05-11T18:48:24.521Z,102551.64
2019-05-11T18:50:56.819Z,102554.97
2019-05-11T18:53:28.715Z,102564.41
2019-05-11T18:55:59.203Z,102577.02
2019-05-11T18:58:30.608Z,102576.17
2019-05-11T19:01:00.763Z,102570.78
2019-05-11T19:03:30.978Z,102576.66
2019-05-11T19:06:01.125Z,102571.64
2019-05-11T19:08:31.292Z,102581.67
2019-05-11T19:11:01.551Z,102585.54
2019-05-11T19:13:31.716Z,102580.54
2019-05-11T19:16:01.983Z,102585.35
2019-05-11T19:18:33.222Z,102583.81
2019-05-11T19:21:03.449Z,102590.66
2019-05-11T19:23:33.758Z,102588.29
2019-05-11T19:26:05.391Z,102601.98
2019-05-11T19:28:38.433Z,102600.54
2019-05-11T19:31:22.259Z,102608.55
2019-05-11T19:34:17.687Z,102616.38
2019-05-11T19:36:50.371Z,102629.63
2019-05-11T19:39:21.551Z,102627.73
2019-05-11T19:41:51.732Z,102626.26
2019-05-11T19:44:22.721Z,102630.12
2019-05-11T19:46:52.934Z,102640.48
2019-05-11T19:49:23.297Z,102643.11
2019-05-11T19:51:53.489Z,102641.59
2019-05-11T19:54:23.724Z,102654.97
2019-05-11T19:56:53.954Z,102659.11
2019-05-11T19:59:24.103Z,102656.38
2019-05-11T20:01:57.325Z,102656.08
2019-05-11T20:04:28.175Z,102662.59
2019-05-11T20:06:58.317Z,102666.65
2019-05-11T20:09:28.551Z,102677.98
2019-05-11T20:11:58.743Z,102680.89
2019-05-11T20:14:29.092Z,102677.84
2019-05-11T20:17:02.259Z,102680.60
2019-05-11T20:19:34.545Z,102684.98
2019-05-11T20:22:07.858Z,102693.46
2019-05-11T20:24:40.371Z,102698.59
2019-05-11T20:27:11.257Z,102698.42
2019-05-11T20:29:42.021Z,102705.08
2019-05-11T20:32:18.729Z,102711.34
2019-05-11T20:34:54.746Z,102709.84
2019-05-11T20:37:28.774Z,102711.00
2019-05-11T20:40:03.273Z,102717.19
2019-05-11T20:42:37.942Z,102721.13
2019-05-11T20:45:09.757Z,102727.98
2019-05-11T20:47:48.447Z,102733.97
2019-05-11T20:50:18.835Z,102736.41
2019-05-11T20:52:51.656Z,102730.70
2019-05-11T20:55:28.560Z,102743.31
2019-05-11T20:58:05.164Z,102746.91
2019-05-11T21:00:45.173Z,102747.00
2019-05-11T21:03:15.955Z,102748.58
2019-05-11T21:05:48.239Z,102756.95
2019-05-11T21:08:28.312Z,102757.89
2019-05-11T21:10:58.273Z,102768.26
2019-05-11T21:13:29.035Z,102767.06
2019-05-11T21:16:05.122Z,102773.28
2019-05-11T21:18:38.100Z,102777.80
2019-05-11T21:21:18.314Z,102778.77
2019-05-11T21:23:53.046Z,102777.27
2019-05-11T21:26:23.976Z,102778.55
2019-05-11T21:28:57.951Z,102786.91
2019-05-11T21:31:29.119Z,102785.45
2019-05-11T21:34:04.181Z,102799.62
2019-05-11T21:36:34.497Z,102798.03
2019-05-11T21:39:11.776Z,102798.03
2019-05-11T21:41:42.106Z,102806.61
2019-05-11T21:44:12.465Z,102804.80
2019-05-11T21:46:42.729Z,102808.28
2019-05-11T21:49:14.518Z,102813.94
2019-05-11T21:51:45.323Z,102824.41
2019-05-11T21:54:16.726Z,102823.52
2019-05-11T21:56:48.764Z,102822.50
2019-05-11T21:59:19.443Z,102822.05
2019-05-11T22:01:50.149Z,102821.42
2019-05-11T22:04:20.775Z,102820.98
2019-05-11T22:06:51.418Z,102820.25
2019-05-11T22:09:22.156Z,102822.05
2019-05-11T22:11:52.496Z,102824.78
2019-05-11T22:14:23.015Z,102825.91
2019-05-11T22:16:53.216Z,102826.22
2019-05-11T22:19:23.588Z,102835.22
2019-05-11T22:21:53.992Z,102842.82
2019-05-11T22:24:24.209Z,102848.72
2019-05-11T22:26:57.462Z,102852.22
2019-05-11T22:29:28.893Z,102856.33
2019-05-11T22:31:59.146Z,102848.98
2019-05-11T22:34:32.151Z,102855.78
2019-05-11T22:37:02.334Z,102858.17
2019-05-11T22:39:32.770Z,102859.48
2019-05-11T22:42:03.007Z,102871.38
2019-05-11T22:44:42.761Z,102881.02
2019-05-11T22:47:13.002Z,102874.31
2019-05-11T22:49:43.209Z,102886.98
2019-05-11T22:52:13.498Z,102883.11
2019-05-11T22:54:48.558Z,102890.20
2019-05-11T22:57:32.327Z,102882.85
2019-05-11T23:00:11.532Z,102904.11
2019-05-11T23:02:43.734Z,102903.02
2019-05-11T23:05:14.942Z,102913.05
2019-05-11T23:07:47.680Z,102913.95
2019-05-11T23:10:17.823Z,102918.33
2019-05-11T23:12:49.983Z,102918.84
2019-05-11T23:15:22.443Z,102917.72
2019-05-11T23:17:55.298Z,102915.81
2019-05-11T23:20:32.381Z,102913.66
2019-05-11T23:23:02.526Z,102923.00
2019-05-11T23:25:33.359Z,102923.00
2019-05-11T23:28:03.497Z,102926.85
2019-05-11T23:30:33.731Z,102934.98
2019-05-11T23:33:03.905Z,102934.16
2019-05-11T23:35:34.029Z,102933.94
2019-05-11T23:38:05.156Z,102937.79
2019-05-11T23:40:37.650Z,102940.22
2019-05-11T23:43:08.760Z,102937.20
2019-05-11T23:45:39.207Z,102935.84
2019-05-11T23:48:09.359Z,102937.27
2019-05-11T23:50:39.492Z,102938.08
2019-05-11T23:53:10.424Z,102935.34
2019-05-11T23:55:42.339Z,102929.34
2019-05-11T23:58:12.516Z,102928.25
